createdAt,value
2022-11-26T00:00:53.442Z,97282.94
2022-11-26T00:03:52.403Z,97290.41
2022-11-26T00:06:49.277Z,97291.44
2022-11-26T00:09:46.166Z,97284.63
2022-11-26T00:12:43.246Z,97284.84
2022-11-26T00:15:40.101Z,97290.97
2022-11-26T00:18:36.973Z,97294.19
2022-11-26T00:21:40.988Z,97306.00
2022-11-26T00:24:38.309Z,97311.72
2022-11-26T00:27:35.306Z,97310.03
2022-11-26T00:30:32.128Z,97314.53
2022-11-26T00:33:30.337Z,97312.66
2022-11-26T00:36:33.066Z,97317.19
2022-11-26T00:39:29.946Z,97315.28
2022-11-26T00:42:26.845Z,97315.41
2022-11-26T00:45:30.161Z,97310.53
2022-11-26T00:48:27.038Z,97319.44
2022-11-26T00:51:27.545Z,97316.06
2022-11-26T00:54:24.572Z,97329.38
2022-11-26T00:57:21.520Z,97321.44
2022-11-26T01:00:23.611Z,97316.25
2022-11-26T01:03:20.530Z,97319.31
2022-11-26T01:06:45.275Z,97332.66
2022-11-26T01:09:45.145Z,97332.66
2022-11-26T01:12:42.229Z,97336.59
2022-11-26T01:15:39.129Z,97331.47
2022-11-26T01:18:36.113Z,97334.66
2022-11-26T01:21:33.451Z,97336.91
2022-11-26T01:24:30.418Z,97350.97
2022-11-26T01:27:27.416Z,97355.41
2022-11-26T01:30:27.503Z,97362.16
2022-11-26T01:33:24.463Z,97357.72
2022-11-26T01:36:31.904Z,97370.41
2022-11-26T01:39:28.885Z,97369.91
2022-11-26T01:42:41.813Z,97367.81
2022-11-26T01:45:39.127Z,97368.72
2022-11-26T01:48:36.095Z,97363.66
2022-11-26T01:51:33.114Z,97373.47
2022-11-26T01:54:32.213Z,97370.16
2022-11-26T01:57:32.845Z,97378.22
2022-11-26T02:00:29.806Z,97382.78
2022-11-26T02:03:31.695Z,97381.72
2022-11-26T02:06:33.281Z,97395.53
2022-11-26T02:09:31.064Z,97394.34
2022-11-26T02:12:28.732Z,97387.97
2022-11-26T02:15:38.043Z,97394.28
2022-11-26T02:18:42.016Z,97400.94
2022-11-26T02:21:48.542Z,97397.38
2022-11-26T02:25:03.638Z,97398.59
2022-11-26T02:28:34.464Z,97399.63
2022-11-26T02:32:00.192Z,97416.13
2022-11-26T02:35:09.734Z,97423.66
2022-11-26T02:38:15.500Z,97427.44
2022-11-26T02:41:12.427Z,97427.53
2022-11-26T02:44:10.048Z,97423.34
2022-11-26T02:47:12.994Z,97427.84
2022-11-26T02:50:18.507Z,97420.94
2022-11-26T02:53:19.166Z,97421.75
2022-11-26T02:56:27.644Z,97430.00
2022-11-26T02:59:24.865Z,97439.16
2022-11-26T03:03:23.028Z,97436.75
2022-11-26T03:06:22.093Z,97436.91
2022-11-26T03:09:18.975Z,97443.00
2022-11-26T03:12:15.903Z,97448.41
2022-11-26T03:15:13.125Z,97457.09
2022-11-26T03:18:10.168Z,97458.22
2022-11-26T03:21:07.572Z,97461.66
2022-11-26T03:24:04.790Z,97462.63
2022-11-26T03:27:01.683Z,97460.75
2022-11-26T03:29:58.789Z,97466.16
2022-11-26T03:32:56.377Z,97482.06
2022-11-26T03:35:53.236Z,97476.88
2022-11-26T03:38:50.139Z,97485.38
2022-11-26T03:41:47.058Z,97487.94
2022-11-26T03:44:44.086Z,97493.56
2022-11-26T03:47:40.975Z,97497.25
2022-11-26T03:50:37.901Z,97497.59
2022-11-26T03:53:34.828Z,97497.09
2022-11-26T03:56:31.708Z,97493.91
2022-11-26T03:59:28.781Z,97503.75
2022-11-26T04:02:25.622Z,97505.53
2022-11-26T04:05:22.495Z,97507.28
2022-11-26T04:08:19.387Z,97508.69
2022-11-26T04:11:16.325Z,97499.09
2022-11-26T04:14:13.222Z,97502.78
2022-11-26T04:17:10.175Z,97508.03
2022-11-26T04:20:08.107Z,97510.03
2022-11-26T04:23:05.611Z,97520.31
2022-11-26T04:26:02.604Z,97524.59
2022-11-26T04:28:59.799Z,97529.31
2022-11-26T04:31:56.755Z,97519.50
2022-11-26T04:34:53.641Z,97520.22
2022-11-26T04:37:50.538Z,97517.66
2022-11-26T04:40:48.408Z,97525.16
2022-11-26T04:43:45.490Z,97532.53
2022-11-26T04:46:42.312Z,97535.09
2022-11-26T04:49:39.164Z,97540.44
2022-11-26T04:52:36.265Z,97538.03
2022-11-26T04:55:33.121Z,97543.47
2022-11-26T04:58:30.027Z,97543.16
2022-11-26T05:01:27.108Z,97553.94
2022-11-26T05:04:24.009Z,97561.66
2022-11-26T05:07:20.968Z,97559.78
2022-11-26T05:10:18.282Z,97567.41
2022-11-26T05:13:15.150Z,97575.38
2022-11-26T05:16:12.083Z,97570.97
2022-11-26T05:19:08.962Z,97581.00
2022-11-26T05:22:05.877Z,97582.63
2022-11-26T05:25:03.941Z,97595.88
2022-11-26T05:28:01.130Z,97594.53
2022-11-26T05:31:03.738Z,97593.22
2022-11-26T05:34:00.657Z,97598.03
2022-11-26T05:36:57.542Z,97605.94
2022-11-26T05:39:54.472Z,97607.53
2022-11-26T05:42:51.335Z,97613.41
2022-11-26T05:45:48.200Z,97611.22
2022-11-26T05:48:45.390Z,97612.84
2022-11-26T05:51:42.263Z,97609.94
2022-11-26T05:54:39.387Z,97616.84
2022-11-26T05:57:37.982Z,97614.13
2022-11-26T06:00:35.048Z,97623.44
2022-11-26T06:03:31.958Z,97622.53
2022-11-26T06:06:28.899Z,97618.84
2022-11-26T06:09:25.784Z,97610.66
2022-11-26T06:12:22.612Z,97614.94
2022-11-26T06:15:19.595Z,97613.69
2022-11-26T06:18:17.302Z,97612.09
2022-11-26T06:21:14.250Z,97614.75
2022-11-26T06:24:11.726Z,97621.69
2022-11-26T06:27:08.581Z,97616.56
2022-11-26T06:30:08.230Z,97620.03
2022-11-26T06:33:05.072Z,97622.34
2022-11-26T06:36:04.172Z,97615.91
2022-11-26T06:39:01.010Z,97624.91
2022-11-26T06:41:57.814Z,97626.53
2022-11-26T06:44:59.461Z,97638.34
2022-11-26T06:47:56.781Z,97641.31
2022-11-26T06:50:53.726Z,97647.41
2022-11-26T06:53:50.558Z,97655.25
2022-11-26T06:56:47.766Z,97661.72
2022-11-26T06:59:44.983Z,97667.84
2022-11-26T07:02:42.576Z,97672.44
2022-11-26T07:05:39.558Z,97665.28
2022-11-26T07:08:36.391Z,97666.34
2022-11-26T07:11:33.996Z,97669.22
2022-11-26T07:14:30.829Z,97674.72
2022-11-26T07:17:29.063Z,97677.63
2022-11-26T07:20:26.690Z,97673.25
2022-11-26T07:23:23.828Z,97678.25
2022-11-26T07:26:23.272Z,97675.38
2022-11-26T07:29:20.093Z,97675.84
2022-11-26T07:32:16.901Z,97678.94
2022-11-26T07:35:13.802Z,97667.97
2022-11-26T07:38:10.812Z,97682.69
2022-11-26T07:41:11.490Z,97680.69
2022-11-26T07:44:13.547Z,97688.22
2022-11-26T07:47:10.452Z,97682.41
2022-11-26T07:50:08.784Z,97691.38
2022-11-26T07:53:05.676Z,97691.22
2022-11-26T07:56:06.307Z,97702.09
2022-11-26T07:59:03.928Z,97711.88
2022-11-26T08:02:00.832Z,97704.56
2022-11-26T08:04:57.802Z,97707.28
2022-11-26T08:07:54.779Z,97716.34
2022-11-26T08:10:51.632Z,97717.13
2022-11-26T08:13:49.303Z,97722.59
2022-11-26T08:16:46.181Z,97729.88
2022-11-26T08:19:43.071Z,97727.75
2022-11-26T08:22:40.064Z,97731.28
2022-11-26T08:25:45.185Z,97736.16
2022-11-26T08:28:55.540Z,97740.31
2022-11-26T08:31:52.483Z,97749.59
2022-11-26T08:34:49.363Z,97750.50
2022-11-26T08:37:46.169Z,97756.47
2022-11-26T08:40:43.083Z,97757.94
2022-11-26T08:44:05.007Z,97756.91
2022-11-26T08:46:57.654Z,97760.50
2022-11-26T08:49:55.053Z,97766.31
2022-11-26T08:52:51.887Z,97773.38
2022-11-26T08:56:00.151Z,97778.22
2022-11-26T08:58:57.881Z,97787.66
2022-11-26T09:01:54.829Z,97789.25
2022-11-26T09:04:52.009Z,97795.03
2022-11-26T09:07:49.274Z,97801.16
2022-11-26T09:10:55.200Z,97806.81
2022-11-26T09:13:53.433Z,97810.97
2022-11-26T09:16:50.975Z,97815.34
2022-11-26T09:19:47.853Z,97811.84
2022-11-26T09:22:44.672Z,97806.13
2022-11-26T09:25:41.497Z,97808.66
2022-11-26T09:28:39.351Z,97813.41
2022-11-26T09:31:36.326Z,97805.50
2022-11-26T09:34:33.350Z,97807.75
2022-11-26T09:37:31.922Z,97806.47
2022-11-26T09:41:05.291Z,97809.25
2022-11-26T09:44:25.689Z,97807.53
2022-11-26T09:47:28.483Z,97816.81
2022-11-26T09:50:32.629Z,97809.91
2022-11-26T09:53:39.431Z,97816.09
2022-11-26T09:56:37.753Z,97816.03
2022-11-26T09:59:38.267Z,97814.25
2022-11-26T10:02:38.209Z,97806.09
2022-11-26T10:06:23.984Z,97806.88
2022-11-26T10:09:52.791Z,97792.91
2022-11-26T10:13:17.261Z,97790.91
2022-11-26T10:16:41.949Z,97786.34
2022-11-26T10:19:58.178Z,97786.69
2022-11-26T10:23:13.352Z,97776.53
2022-11-26T10:26:20.104Z,97775.13
2022-11-26T10:29:28.061Z,97778.75
2022-11-26T10:32:38.525Z,97784.78
2022-11-26T10:35:35.407Z,97781.19
2022-11-26T10:38:32.394Z,97783.84
2022-11-26T10:41:35.217Z,97786.75
2022-11-26T10:44:40.585Z,97791.53
2022-11-26T10:47:37.815Z,97784.03
2022-11-26T10:50:50.533Z,97788.25
2022-11-26T10:53:52.525Z,97776.38
2022-11-26T10:56:53.203Z,97777.66
2022-11-26T10:59:53.512Z,97789.59
2022-11-26T11:02:50.673Z,97779.72
2022-11-26T11:05:47.844Z,97795.22
2022-11-26T11:08:50.647Z,97794.28
2022-11-26T11:11:47.535Z,97793.19
2022-11-26T11:14:46.486Z,97784.97
2022-11-26T11:17:45.387Z,97787.75
2022-11-26T11:20:51.766Z,97789.34
2022-11-26T11:27:21.256Z,97793.06
2022-11-26T11:30:27.450Z,97793.88
2022-11-26T11:33:28.522Z,97799.13
2022-11-26T11:36:29.096Z,97786.81
2022-11-26T11:39:32.992Z,97791.81
2022-11-26T11:42:31.008Z,97792.34
2022-11-26T11:45:42.285Z,97793.13
2022-11-26T11:48:53.299Z,97786.03
2022-11-26T11:52:34.488Z,97786.09
2022-11-26T11:56:02.441Z,97781.78
2022-11-26T11:59:58.134Z,97789.56
2022-11-26T12:03:12.462Z,97792.41
2022-11-26T12:07:00.287Z,97789.75
2022-11-26T12:10:34.015Z,97793.28
2022-11-26T12:13:46.264Z,97781.50
2022-11-26T12:16:48.215Z,97788.44
2022-11-26T12:19:54.584Z,97775.44
2022-11-26T12:23:27.441Z,97783.69
2022-11-26T12:26:36.808Z,97789.16
2022-11-26T12:29:47.197Z,97790.31
2022-11-26T12:33:01.686Z,97798.94
2022-11-26T12:36:07.618Z,97797.16
2022-11-26T12:39:19.103Z,97792.28
2022-11-26T12:42:45.355Z,97806.44
2022-11-26T12:45:56.372Z,97803.00
2022-11-26T12:48:59.592Z,97797.34
2022-11-26T12:52:33.812Z,97800.69
2022-11-26T12:55:35.928Z,97814.38
2022-11-26T12:58:44.911Z,97817.44
2022-11-26T13:01:41.796Z,97823.88
2022-11-26T13:04:38.780Z,97816.00
2022-11-26T13:08:05.990Z,97815.19
2022-11-26T13:11:19.364Z,97809.56
2022-11-26T13:15:11.533Z,97810.34
2022-11-26T13:18:22.824Z,97801.88
2022-11-26T13:21:44.122Z,97795.09
2022-11-26T13:25:31.197Z,97802.63
2022-11-26T13:28:52.313Z,97802.53
2022-11-26T13:32:25.999Z,97795.91
2022-11-26T13:36:14.642Z,97788.56
2022-11-26T13:39:23.180Z,97785.91
2022-11-26T13:42:57.580Z,97788.03
2022-11-26T13:46:22.666Z,97785.06
2022-11-26T13:49:28.567Z,97782.88
2022-11-26T13:52:48.563Z,97784.41
2022-11-26T13:55:59.862Z,97788.97
2022-11-26T13:59:04.140Z,97791.00
2022-11-26T14:02:32.949Z,97802.25
2022-11-26T14:06:08.405Z,97806.09
2022-11-26T14:09:06.116Z,97802.00
2022-11-26T14:12:02.944Z,97810.13
2022-11-26T14:14:59.751Z,97812.56
2022-11-26T14:17:57.010Z,97810.03
2022-11-26T14:21:00.509Z,97812.88
2022-11-26T14:23:59.592Z,97821.78
2022-11-26T14:26:56.543Z,97815.28
2022-11-26T14:29:58.250Z,97816.59
2022-11-26T14:33:12.066Z,97813.59
2022-11-26T14:36:24.995Z,97818.84
2022-11-26T14:39:24.476Z,97824.66
2022-11-26T14:42:21.289Z,97825.75
2022-11-26T14:45:21.060Z,97824.72
2022-11-26T14:48:29.502Z,97821.91
2022-11-26T14:51:27.152Z,97830.84
2022-11-26T14:54:38.598Z,97835.84
2022-11-26T14:57:50.079Z,97831.16
2022-11-26T15:01:23.082Z,97836.38
2022-11-26T15:04:29.950Z,97833.97
2022-11-26T15:07:29.548Z,97839.19
2022-11-26T15:10:32.561Z,97844.69
2022-11-26T15:13:41.509Z,97845.47
2022-11-26T15:16:41.417Z,97851.84
2022-11-26T15:19:40.809Z,97840.88
2022-11-26T15:22:44.258Z,97844.50
2022-11-26T15:25:49.982Z,97848.53
2022-11-26T15:28:46.829Z,97846.28
2022-11-26T15:31:43.751Z,97843.75
2022-11-26T15:34:41.005Z,97850.03
2022-11-26T15:37:38.092Z,97848.75
2022-11-26T15:40:50.317Z,97844.56
2022-11-26T15:43:51.654Z,97832.31
2022-11-26T15:46:51.311Z,97844.81
2022-11-26T15:49:54.888Z,97844.88
2022-11-26T15:52:59.255Z,97850.19
2022-11-26T15:55:56.349Z,97840.84
2022-11-26T15:58:57.680Z,97843.66
2022-11-26T16:01:55.065Z,97842.28
2022-11-26T16:04:59.144Z,97832.88
2022-11-26T16:07:58.953Z,97829.03
2022-11-26T16:11:08.623Z,97839.06
2022-11-26T16:14:38.393Z,97846.09
2022-11-26T16:17:36.917Z,97847.59
2022-11-26T16:20:33.813Z,97845.91
2022-11-26T16:23:31.087Z,97851.28
2022-11-26T16:26:29.393Z,97837.09
2022-11-26T16:29:28.247Z,97835.41
2022-11-26T16:32:25.649Z,97843.59
2022-11-26T16:35:44.699Z,97833.31
2022-11-26T16:38:42.550Z,97846.19
2022-11-26T16:41:39.383Z,97846.91
2022-11-26T16:44:36.213Z,97847.25
2022-11-26T16:47:39.329Z,97848.63
2022-11-26T16:50:36.193Z,97854.03
2022-11-26T16:53:33.484Z,97857.72
2022-11-26T16:56:37.375Z,97852.19
2022-11-26T16:59:34.261Z,97850.31
2022-11-26T17:02:33.410Z,97869.44
2022-11-26T17:05:30.482Z,97868.22
2022-11-26T17:08:29.814Z,97865.81
2022-11-26T17:11:27.027Z,97866.69
2022-11-26T17:14:23.866Z,97868.66
2022-11-26T17:17:28.936Z,97875.22
2022-11-26T17:20:25.825Z,97872.53
2022-11-26T17:23:22.688Z,97876.84
2022-11-26T17:26:22.543Z,97880.97
2022-11-26T17:29:19.398Z,97883.13
2022-11-26T17:32:19.374Z,97876.16
2022-11-26T17:35:16.579Z,97885.31
2022-11-26T17:38:21.675Z,97891.13
2022-11-26T17:41:18.987Z,97879.09
2022-11-26T17:44:15.811Z,97876.28
2022-11-26T17:47:17.852Z,97876.28
2022-11-26T17:50:22.140Z,97875.78
2022-11-26T17:53:19.044Z,97873.72
2022-11-26T17:56:20.346Z,97881.59
2022-11-26T17:59:20.447Z,97875.88
2022-11-26T18:02:18.749Z,97881.94
2022-11-26T18:05:15.762Z,97877.19
2022-11-26T18:08:12.594Z,97881.34
2022-11-26T18:11:11.909Z,97887.25
2022-11-26T18:14:08.771Z,97876.44
2022-11-26T18:17:08.414Z,97883.19
2022-11-26T18:20:06.442Z,97877.81
2022-11-26T18:23:03.478Z,97891.34
2022-11-26T18:26:01.013Z,97883.47
2022-11-26T18:28:58.394Z,97886.66
2022-11-26T18:31:55.212Z,97875.03
2022-11-26T18:34:52.123Z,97872.88
2022-11-26T18:37:48.999Z,97880.47
2022-11-26T18:40:45.822Z,97873.50
2022-11-26T18:43:42.925Z,97856.16
2022-11-26T18:46:39.818Z,97866.00
2022-11-26T18:49:36.966Z,97871.06
2022-11-26T18:52:33.960Z,97867.09
2022-11-26T18:55:30.812Z,97866.00
2022-11-26T18:58:27.739Z,97869.63
2022-11-26T19:01:31.956Z,97863.50
2022-11-26T19:04:28.867Z,97874.31
2022-11-26T19:07:25.723Z,97873.41
2022-11-26T19:10:22.639Z,97870.06
2022-11-26T19:13:19.463Z,97867.56
2022-11-26T19:16:21.609Z,97863.28
2022-11-26T19:19:18.831Z,97868.41
2022-11-26T19:22:15.639Z,97859.91
2022-11-26T19:25:12.740Z,97867.75
2022-11-26T19:28:10.291Z,97867.94
2022-11-26T19:31:11.095Z,97871.16
2022-11-26T19:34:14.365Z,97869.81
2022-11-26T19:37:11.208Z,97865.63
2022-11-26T19:40:09.108Z,97866.91
2022-11-26T19:43:06.009Z,97863.88
2022-11-26T19:46:19.398Z,97874.59
2022-11-26T19:49:17.460Z,97868.13
2022-11-26T19:52:14.659Z,97869.59
2022-11-26T19:55:12.386Z,97873.84
2022-11-26T19:58:09.214Z,97877.81
2022-11-26T20:01:09.225Z,97875.63
2022-11-26T20:04:15.635Z,97874.66
2022-11-26T20:07:12.506Z,97866.94
2022-11-26T20:10:10.007Z,97873.28
2022-11-26T20:13:08.088Z,97868.06
2022-11-26T20:16:15.164Z,97874.50
2022-11-26T20:19:13.277Z,97870.81
2022-11-26T20:22:10.089Z,97873.34
2022-11-26T20:25:07.593Z,97869.97
2022-11-26T20:28:05.063Z,97863.22
2022-11-26T20:31:05.318Z,97861.97
2022-11-26T20:34:04.077Z,97869.34
2022-11-26T20:37:01.870Z,97867.56
2022-11-26T20:39:58.824Z,97873.94
2022-11-26T20:42:55.630Z,97872.13
2022-11-26T20:46:06.902Z,97855.47
2022-11-26T20:49:06.167Z,97864.88
2022-11-26T20:52:03.052Z,97860.41
2022-11-26T20:54:59.871Z,97867.31
2022-11-26T20:57:56.676Z,97868.41
2022-11-26T21:00:54.991Z,97869.78
2022-11-26T21:03:52.830Z,97876.81
2022-11-26T21:06:49.781Z,97872.47
2022-11-26T21:09:47.642Z,97873.13
2022-11-26T21:12:44.446Z,97868.59
2022-11-26T21:15:42.851Z,97869.69
2022-11-26T21:18:39.706Z,97863.78
2022-11-26T21:21:36.574Z,97866.16
2022-11-26T21:24:33.768Z,97855.66
2022-11-26T21:27:32.588Z,97853.22
2022-11-26T21:30:29.431Z,97858.09
2022-11-26T21:33:26.394Z,97856.50
2022-11-26T21:36:24.409Z,97857.16
2022-11-26T21:39:21.272Z,97850.59
2022-11-26T21:42:18.108Z,97853.59
2022-11-26T21:45:14.938Z,97857.25
2022-11-26T21:48:11.796Z,97857.75
2022-11-26T21:51:11.375Z,97859.00
2022-11-26T21:54:09.289Z,97853.72
2022-11-26T21:57:06.108Z,97851.84
2022-11-26T22:00:03.645Z,97860.38
2022-11-26T22:03:00.498Z,97866.47
2022-11-26T22:05:59.673Z,97871.97
2022-11-26T22:08:56.801Z,97878.28
2022-11-26T22:11:53.610Z,97879.06
2022-11-26T22:14:50.436Z,97877.31
2022-11-26T22:17:47.283Z,97874.03
2022-11-26T22:20:54.228Z,97884.38
2022-11-26T22:23:52.494Z,97892.72
2022-11-26T22:26:49.387Z,97896.97
2022-11-26T22:29:46.301Z,97905.94
2022-11-26T22:32:43.123Z,97904.91
2022-11-26T22:35:40.115Z,97894.63
2022-11-26T22:38:38.739Z,97890.72
2022-11-26T22:41:35.571Z,97896.63
2022-11-26T22:44:33.941Z,97894.47
2022-11-26T22:47:30.748Z,97905.59
2022-11-26T22:50:27.562Z,97890.56
2022-11-26T22:53:24.449Z,97890.13
2022-11-26T22:56:22.265Z,97884.00
2022-11-26T22:59:19.102Z,97886.66
2022-11-26T23:02:16.013Z,97879.75
2022-11-26T23:05:12.927Z,97882.75
2022-11-26T23:08:11.075Z,97879.69
2022-11-26T23:11:12.875Z,97882.75
2022-11-26T23:14:11.910Z,97878.28
2022-11-26T23:17:08.853Z,97885.53
2022-11-26T23:20:06.700Z,97873.47
2022-11-26T23:23:04.840Z,97860.09
2022-11-26T23:26:03.442Z,97859.84
2022-11-26T23:29:02.282Z,97852.94
2022-11-26T23:31:59.183Z,97845.38
2022-11-26T23:34:56.105Z,97843.00
2022-11-26T23:37:52.908Z,97835.84
2022-11-26T23:41:02.416Z,97827.00
2022-11-26T23:43:59.548Z,97835.22
2022-11-26T23:46:56.336Z,97820.41
2022-11-26T23:49:56.168Z,97819.59
2022-11-26T23:52:55.164Z,97810.03
2022-11-26T23:55:52.055Z,97812.22
2022-11-26T23:58:54.555Z,97808.16
